• Join FlightAware (Why Join?)
  • Login
  • US Flag 
08:17AM EDT


 

Airport Tracker/Info


-or-


 

Live Flight TrackerFlight Track Log ✈ EJA658 ✈ 20-Apr-2013 ✈ KBDL - KCGF

Flight Track Log - Related Links

Times and Time Zones

All times are in EDT time to prevent confusion due to time zone crossing. See the EJA658 flight status page for this flight to view local times or setup timezone preferences in your user account.

Time Position Orientation Groundspeed Altitude Reporting Facility
EDT Latitude Longitude Course Direction KTS MPH feet Rate Location/Type
03:22PM 41.9417 -72.6997 308° West 134 154 1,100  Level Boston Center
03:23PM 41.9769 -72.7611 308° West 166 191 5,400 4,140 Climbing Boston Center
03:24PM 41.9683 -72.8422 262° West 187 215 10,000 4,260 Climbing Boston Center
03:25PM 41.9575 -72.9286 260° West 218 251 14,000 3,600 Climbing Boston Center
03:26PM 41.9489 -73.0122 262° West 237 273 17,200 2,880 Climbing Boston Center
03:27PM 41.9358 -73.0958 258° West 242 278 19,800 2,580 Climbing Boston Center
03:28PM 41.9228 -73.1878 259° West 253 291 22,400 2,700 Climbing Boston Center
03:29PM 41.9094 -73.2881 260° West 264 304 25,300 2,820 Climbing Boston Center
03:30PM 41.8778 -73.3603 240° Southwest 250 288 28,100 2,400 Climbing Boston Center
03:31PM 41.8397 -73.4264 232° Southwest 237 273 30,100 1,920 Climbing Boston Center
03:32PM 41.8017 -73.4928 232° Southwest 231 266 32,000 1,860 Climbing Boston Center
03:34PM 41.7378 -73.6011 232° Southwest 227 261 35,400 1,860 Climbing New York Center
03:35PM 41.7053 -73.6581 233° Southwest 221 254 37,300 1,260 Climbing New York Center
03:36PM 41.6703 -73.7203 233° Southwest 215 247 38,000 300 Climbing New York Center
03:37PM 41.6289 -73.7933 233° Southwest 230 265 38,000 60 Level New York Center
03:38PM 41.5850 -73.8775 235° Southwest 250 288 38,200 600 Climbing New York Center
03:39PM 41.5372 -73.9583 232° Southwest 269 310 39,200 900 Climbing New York Center
03:40PM 41.4911 -74.0419 234° Southwest 282 325 40,000 360 Climbing New York Center
03:41PM 41.4408 -74.1281 232° Southwest 287 330 40,000  Level New York Center
03:42PM 41.3903 -74.2194 234° Southwest 298 343 40,000  Level New York Center
03:43PM 41.3356 -74.3106 231° Southwest 315 362 40,000  Level New York Center
03:44PM 41.2786 -74.4014 230° Southwest 315 362 40,000  Level New York Center
03:45PM 41.2300 -74.4925 235° Southwest 320 368 40,000  Level New York Center
03:47PM 41.1261 -74.6769 233° Southwest 315 362 40,000  Level New York Center
03:48PM 41.0750 -74.7703 234° Southwest 315 362 40,000  Level New York Center
03:49PM 41.0239 -74.8636 234° Southwest 315 362 40,000  Level New York Center
03:50PM 40.9750 -74.9539 234° Southwest 315 362 40,000  Level New York Center
03:51PM 40.9300 -75.0500 238° Southwest 315 362 40,000  Level New York Center
03:52PM 40.8828 -75.1458 237° Southwest 315 362 40,000  Level New York Center
03:53PM 40.8333 -75.2414 236° Southwest 321 369 40,000  Level New York Center
03:54PM 40.7878 -75.3372 238° Southwest 315 362 40,000  Level New York Center
03:55PM 40.7444 -75.4356 240° Southwest 315 362 40,000  Level New York Center
03:56PM 40.7092 -75.5400 246° West 309 356 40,000  Level New York Center
03:57PM 40.6694 -75.6439 243° Southwest 316 364 40,000  Level New York Center
03:58PM 40.6317 -75.7481 244° Southwest 321 369 40,000  Level New York Center
03:59PM 40.5897 -75.8542 243° Southwest 321 369 40,000  Level New York Center
04:00PM 40.5456 -75.9603 241° Southwest 321 369 40,000  Level New York Center
04:01PM 40.5056 -76.0636 243° Southwest 321 369 40,000  Level New York Center
04:02PM 40.4653 -76.1669 243° Southwest 321 369 40,000  Level New York Center
04:03PM 40.4272 -76.2731 245° Southwest 316 364 40,000  Level New York Center
04:04PM 40.3869 -76.3761 243° Southwest 322 371 40,000  Level New York Center
04:05PM 40.3489 -76.4739 243° Southwest 315 362 40,000  Level New York Center
04:06PM 40.3064 -76.5767 242° Southwest 315 362 40,000  Level New York Center
04:07PM 40.2658 -76.6792 243° Southwest 315 362 40,000  Level New York Center
04:08PM 40.2250 -76.7844 243° Southwest 321 369 40,000  Level New York Center
04:09PM 40.1844 -76.8844 242° Southwest 321 369 40,000  Level New York Center
04:10PM 40.1417 -76.9839 241° Southwest 316 364 40,000  Level New York Center
04:11PM 40.1003 -77.0969 244° Southwest 316 364 40,000  Level New York Center
04:12PM 40.0572 -77.1986 241° Southwest 316 364 40,000  Level New York Center
04:13PM 40.0161 -77.3008 242° Southwest 316 364 40,000  Level New York Center
04:14PM 39.9750 -77.4025 242° Southwest 316 364 40,000  Level New York Center
04:15PM 39.9561 -77.5172 258° West 316 364 40,000  Level New York Center
04:16PM 39.9614 -77.6425 273° West 330 380 40,000  Level New York Center
04:16PM 39.9658 -77.6900 277° West 337 388 40,000  Level Cleveland Center
04:17PM 40.0103 -77.8075 296° West 331 381 40,000  Level Cleveland Center
04:18PM 40.0419 -77.9064 293° West 351 404 40,000  Level Cleveland Center
04:19PM 40.0578 -78.0469 278° West 358 412 40,000  Level Cleveland Center
04:20PM 40.0772 -78.1736 281° West 358 412 40,000  Level Cleveland Center
04:21PM 40.1400 -78.2883 306° West 364 419 40,000 -360 Level Cleveland Center
04:22PM 40.2006 -78.4083 303° West 376 433 39,300 -1,320 Descending Cleveland Center
04:23PM 40.2592 -78.5236 304° West 383 441 37,400 -1,680 Descending Cleveland Center
04:24PM 40.3153 -78.6333 304° West 383 441 36,000 -720 Descending Cleveland Center
04:25PM 40.3714 -78.7489 303° West 377 434 36,000  Level Cleveland Center
04:26PM 40.4294 -78.8647 303° West 382 440 36,000  Level Cleveland Center
04:27PM 40.4833 -78.9753 303° West 377 434 36,000 -840 Level Cleveland Center
04:28PM 40.5367 -79.0833 303° West 372 428 34,400 -2,100 Descending Cleveland Center
04:29PM 40.6008 -79.2131 303° West 374 430 31,900 -2,340 Descending Cleveland Center
04:30PM 40.6564 -79.3269 303° West 379 436 29,800 -2,100 Descending Cleveland Center
04:31PM 40.7097 -79.4381 302° West 374 430 27,700 -2,160 Descending Cleveland Center
04:32PM 40.7628 -79.5469 303° West 364 419 25,500 -2,160 Descending Cleveland Center
04:33PM 40.8158 -79.6558 303° West 364 419 23,400 -2,100 Descending Cleveland Center
04:34PM 40.8647 -79.7622 301° West 364 419 21,300 -1,740 Descending Cleveland Center
04:35PM 40.9133 -79.8633 302° West 348 400 20,000 -660 Descending Cleveland Center
04:36PM 40.9639 -79.9672 303° West 337 388 20,000  Level Cleveland Center
04:37PM 41.0125 -80.0714 302° West 337 388 20,000 -660 Level Cleveland Center
04:38PM 41.0586 -80.1728 301° West 337 388 18,700 -1,500 Descending Cleveland Center
04:39PM 41.1069 -80.2744 302° West 337 388 17,100 -1,800 Descending Cleveland Center
04:40PM 41.1531 -80.3736 302° West 327 376 15,200 -1,740 Descending Cleveland Center
04:41PM 41.1969 -80.4700 301° West 313 360 13,700 -1,260 Descending Cleveland Center
04:42PM 41.2428 -80.5692 302° West 313 360 12,700 -1,080 Descending Cleveland Center
04:43PM 41.2867 -80.6633 302° West 313 360 11,600 -1,020 Descending Cleveland Center
04:44PM 41.3219 -80.7408 301° West 299 344 10,700 -1,140 Descending Cleveland Center
04:45PM 41.3406 -80.7850 299° West 242 278 10,000 -1,200 Descending Cleveland Center
04:45PM 41.3594 -80.8211 305° West 268 308 9,500 -1,200 Descending Cleveland Center
04:46PM 41.3781 -80.8708 297° West 246 283 8,700 -1,200 Descending Cleveland Center
04:46PM 41.3925 -80.8958 308° West 250 288 8,300 -1,200 Descending Cleveland Center
04:47PM 41.4153 -80.9458 301° West 245 282 7,500 -1,320 Descending Cleveland Center
04:47PM 41.4278 -80.9736 301° West 245 282 7,000 -1,080 Descending Cleveland Center
04:48PM 41.4608 -81.0431 302° West 235 270 6,000 -900 Descending Cleveland Center
04:49PM 41.4897 -81.1069 301° West 226 260 5,400 -1,380 Descending Cleveland Center
04:50PM 41.5122 -81.1903 290° West 220 253 3,300 -1,200 Descending Cleveland Center
04:51PM 41.5036 -81.2542 260° West 184 212 3,000 -180 Descending Cleveland Center
04:52PM 41.4947 -81.3317 261° West 184 212 3,000  Level Cleveland Center
04:53PM 41.5047 -81.3900 283° West 197 227 3,000 -300 Level Cleveland Center
04:54PM 41.5506 -81.4156 337° Northwest 173 199 2,400 -720 Descending Cleveland Center
04:55PM 41.5772 -81.4519 314° West 108 124 1,600 -840 Descending Cleveland Center
04:57PM 41.5651 -81.4864 257° West  Level Estimated
05:04PM 41.5651 -81.4864 56° Northeast  Level Estimated